Time,TemperatureF,DewpointF,PressureIn,WindDirection,WindDirectionDegrees,WindSpeedMPH,WindSpeedGustMPH,Humidity,HourlyPrecipIn,Conditions,Clouds,dailyrainin,SoftwareType,DateUTC
2013-02-02 00:00:00,53.6,39.3,30.26,North,0,0.0,0.0,58,0.00,,,0.00,WUHU216HW,2013-02-02 05:00:00,
2013-02-02 00:01:00,53.5,39.1,30.26,North,0,0.0,0.0,58,0.00,,,0.00,WUHU216HW,2013-02-02 05:01:00,
2013-02-02 00:06:00,53.3,38.9,30.26,North,0,0.0,0.0,58,0.00,,,0.00,WUHU216HW,2013-02-02 05:06:00,
2013-02-02 00:11:00,53.3,38.9,30.26,North,0,0.0,0.0,58,0.00,,,0.00,WUHU216HW,2013-02-02 05:11:00,
2013-02-02 00:16:00,53.3,38.9,30.25,North,0,0.0,0.0,58,0.00,,,0.00,WUHU216HW,2013-02-02 05:16:00,
2013-02-02 00:21:00,53.1,38.3,30.26,North,0,0.0,0.0,57,0.00,,,0.00,WUHU216HW,2013-02-02 05:21:00,
2013-02-02 00:26:00,52.9,38.1,30.26,North,0,0.0,0.0,57,0.00,,,0.00,WUHU216HW,2013-02-02 05:26:00,
2013-02-02 00:31:00,52.9,38.1,30.26,North,0,0.0,0.0,57,0.00,,,0.00,WUHU216HW,2013-02-02 05:31:00,
2013-02-02 00:36:00,52.7,37.9,30.26,North,0,0.0,0.0,57,0.00,,,0.00,WUHU216HW,2013-02-02 05:36:00,
2013-02-02 00:41:00,52.6,37.7,30.26,North,0,0.0,0.0,57,0.00,,,0.00,WUHU216HW,2013-02-02 05:41:00,
2013-02-02 00:46:00,52.2,37.4,30.26,North,0,0.0,0.0,57,0.00,,,0.00,WUHU216HW,2013-02-02 05:46:00,
2013-02-02 00:51:00,52.2,37.4,30.26,North,0,0.0,0.0,57,0.00,,,0.00,WUHU216HW,2013-02-02 05:51:00,
2013-02-02 00:56:00,52.0,37.6,30.26,North,0,0.0,0.0,58,0.00,,,0.00,WUHU216HW,2013-02-02 05:56:00,
2013-02-02 01:01:00,51.8,37.4,30.26,North,0,0.0,0.0,58,0.00,,,0.00,WUHU216HW,2013-02-02 06:01:00,
2013-02-02 01:06:00,51.7,37.3,30.26,North,0,0.0,0.0,58,0.00,,,0.00,WUHU216HW,2013-02-02 06:06:00,
2013-02-02 01:11:00,51.5,37.1,30.26,North,0,0.0,0.0,58,0.00,,,0.00,WUHU216HW,2013-02-02 06:11:00,
2013-02-02 01:16:00,51.5,37.1,30.26,North,0,0.0,0.0,58,0.00,,,0.00,WUHU216HW,2013-02-02 06:16:00,
2013-02-02 01:21:00,51.5,36.6,30.26,North,0,0.0,0.0,57,0.00,,,0.00,WUHU216HW,2013-02-02 06:21:00,
2013-02-02 01:26:00,51.5,36.6,30.26,North,0,0.0,0.0,57,0.00,,,0.00,WUHU216HW,2013-02-02 06:26:00,
2013-02-02 01:31:00,51.3,36.6,30.26,North,0,0.0,0.0,57,0.00,,,0.00,WUHU216HW,2013-02-02 06:31:00,
2013-02-02 01:36:00,51.1,36.4,30.26,North,0,0.0,0.0,57,0.00,,,0.00,WUHU216HW,2013-02-02 06:36:00,
2013-02-02 01:41:00,51.1,36.4,30.26,North,0,0.0,0.0,57,0.00,,,0.00,WUHU216HW,2013-02-02 06:41:00,
2013-02-02 01:46:00,51.1,36.4,30.26,North,0,0.0,0.0,57,0.00,,,0.00,WUHU216HW,2013-02-02 06:46:00,
2013-02-02 01:51:00,50.8,36.0,30.26,North,0,0.0,0.0,57,0.00,,,0.00,WUHU216HW,2013-02-02 06:51:00,
2013-02-02 01:56:00,50.8,36.0,30.26,North,0,0.0,0.0,57,0.00,,,0.00,WUHU216HW,2013-02-02 06:56:00,
2013-02-02 02:01:00,50.6,35.8,30.26,North,0,0.0,0.0,57,0.00,,,0.00,WUHU216HW,2013-02-02 07:01:00,
2013-02-02 02:06:00,50.4,35.7,30.26,North,0,0.0,0.0,57,0.00,,,0.00,WUHU216HW,2013-02-02 07:06:00,
2013-02-02 02:11:00,50.2,35.6,30.25,North,0,0.0,0.0,57,0.00,,,0.00,WUHU216HW,2013-02-02 07:11:00,
2013-02-02 02:16:00,50.2,35.6,30.25,North,0,0.0,0.0,57,0.00,,,0.00,WUHU216HW,2013-02-02 07:16:00,
2013-02-02 02:21:00,50.0,35.8,30.25,North,0,0.0,0.0,58,0.00,,,0.00,WUHU216HW,2013-02-02 07:21:00,
2013-02-02 02:26:00,49.7,35.5,30.25,North,0,0.0,0.0,58,0.00,,,0.00,WUHU216HW,2013-02-02 07:26:00,
2013-02-02 02:31:00,49.5,35.3,30.25,North,0,0.0,0.0,58,0.00,,,0.00,WUHU216HW,2013-02-02 07:31:00,
2013-02-02 02:36:00,49.3,35.2,30.24,North,0,0.0,0.0,58,0.00,,,0.00,WUHU216HW,2013-02-02 07:36:00,
2013-02-02 02:41:00,49.3,35.2,30.24,North,0,0.0,0.0,58,0.00,,,0.00,WUHU216HW,2013-02-02 07:41:00,
2013-02-02 02:46:00,49.1,35.0,30.25,North,0,0.0,0.0,58,0.00,,,0.00,WUHU216HW,2013-02-02 07:46:00,
2013-02-02 02:51:00,49.0,35.3,30.25,North,0,0.0,0.0,59,0.00,,,0.00,WUHU216HW,2013-02-02 07:51:00,
2013-02-02 02:56:00,49.0,35.3,30.24,North,0,0.0,0.0,59,0.00,,,0.00,WUHU216HW,2013-02-02 07:56:00,
2013-02-02 03:01:00,48.6,34.9,30.24,North,0,0.0,0.0,59,0.00,,,0.00,WUHU216HW,2013-02-02 08:01:00,
2013-02-02 03:06:00,48.6,34.9,30.24,North,0,0.0,0.0,59,0.00,,,0.00,WUHU216HW,2013-02-02 08:06:00,
2013-02-02 03:11:00,48.6,34.9,30.25,North,0,0.0,0.0,59,0.00,,,0.00,WUHU216HW,2013-02-02 08:11:00,
2013-02-02 03:16:00,48.6,34.9,30.25,North,0,0.0,0.0,59,0.00,,,0.00,WUHU216HW,2013-02-02 08:16:00,
2013-02-02 03:21:00,48.4,34.8,30.25,North,0,0.0,0.0,59,0.00,,,0.00,WUHU216HW,2013-02-02 08:21:00,
2013-02-02 03:26:00,48.4,34.8,30.25,North,0,0.0,0.0,59,0.00,,,0.00,WUHU216HW,2013-02-02 08:26:00,
2013-02-02 03:31:00,48.4,34.8,30.25,North,0,0.0,0.0,59,0.00,,,0.00,WUHU216HW,2013-02-02 08:31:00,
2013-02-02 03:36:00,48.2,34.7,30.25,North,0,0.0,0.0,59,0.00,,,0.00,WUHU216HW,2013-02-02 08:36:00,
2013-02-02 03:41:00,48.2,34.7,30.25,North,0,0.0,0.0,59,0.00,,,0.00,WUHU216HW,2013-02-02 08:41:00,
2013-02-02 03:46:00,48.1,34.5,30.25,North,0,0.0,0.0,59,0.00,,,0.00,WUHU216HW,2013-02-02 08:46:00,
2013-02-02 03:51:00,48.1,34.5,30.25,North,0,0.0,0.0,59,0.00,,,0.00,WUHU216HW,2013-02-02 08:51:00,
2013-02-02 03:56:00,47.9,34.3,30.25,North,0,0.0,0.0,59,0.00,,,0.00,WUHU216HW,2013-02-02 08:56:00,
2013-02-02 04:01:00,47.9,34.3,30.25,North,0,0.0,0.0,59,0.00,,,0.00,WUHU216HW,2013-02-02 09:01:00,
2013-02-02 04:06:00,47.9,34.3,30.25,North,0,0.0,0.0,59,0.00,,,0.00,WUHU216HW,2013-02-02 09:06:00,
2013-02-02 04:11:00,47.9,34.7,30.25,North,0,0.0,0.0,60,0.00,,,0.00,WUHU216HW,2013-02-02 09:11:00,
2013-02-02 04:16:00,47.7,34.6,30.25,North,0,0.0,0.0,60,0.00,,,0.00,WUHU216HW,2013-02-02 09:16:00,
2013-02-02 04:21:00,47.7,34.6,30.25,North,0,0.0,0.0,60,0.00,,,0.00,WUHU216HW,2013-02-02 09:21:00,
2013-02-02 04:26:00,47.5,34.4,30.25,North,0,0.0,0.0,60,0.00,,,0.00,WUHU216HW,2013-02-02 09:26:00,
2013-02-02 04:31:00,47.5,34.4,30.24,North,0,0.0,0.0,60,0.00,,,0.00,WUHU216HW,2013-02-02 09:31:00,
2013-02-02 04:36:00,47.3,34.2,30.24,North,0,0.0,0.0,60,0.00,,,0.00,WUHU216HW,2013-02-02 09:36:00,
2013-02-02 04:41:00,47.3,34.2,30.24,North,0,0.0,0.0,60,0.00,,,0.00,WUHU216HW,2013-02-02 09:41:00,
2013-02-02 04:46:00,47.3,34.2,30.24,North,0,0.0,0.0,60,0.00,,,0.00,WUHU216HW,2013-02-02 09:46:00,
2013-02-02 04:51:00,47.2,34.0,30.24,North,0,0.0,0.0,60,0.00,,,0.00,WUHU216HW,2013-02-02 09:51:00,
2013-02-02 04:56:00,47.2,34.0,30.24,North,0,0.0,0.0,60,0.00,,,0.00,WUHU216HW,2013-02-02 09:56:00,
2013-02-02 05:01:00,47.2,34.0,30.24,North,0,0.0,0.0,60,0.00,,,0.00,WUHU216HW,2013-02-02 10:01:00,
2013-02-02 05:06:00,47.2,34.4,30.24,North,0,0.0,0.0,61,0.00,,,0.00,WUHU216HW,2013-02-02 10:06:00,
2013-02-02 05:11:00,47.2,34.4,30.24,North,0,0.0,0.0,61,0.00,,,0.00,WUHU216HW,2013-02-02 10:11:00,
2013-02-02 05:16:00,47.2,34.4,30.24,North,0,0.0,0.0,61,0.00,,,0.00,WUHU216HW,2013-02-02 10:16:00,
2013-02-02 05:21:00,47.2,34.4,30.24,North,0,0.0,0.0,61,0.00,,,0.00,WUHU216HW,2013-02-02 10:21:00,
2013-02-02 05:26:00,47.2,34.4,30.25,North,0,0.0,0.0,61,0.00,,,0.00,WUHU216HW,2013-02-02 10:26:00,
2013-02-02 05:31:00,47.2,34.4,30.25,North,0,0.0,0.0,61,0.00,,,0.00,WUHU216HW,2013-02-02 10:31:00,
2013-02-02 05:36:00,47.0,34.2,30.24,North,0,0.0,0.0,61,0.00,,,0.00,WUHU216HW,2013-02-02 10:36:00,
2013-02-02 05:41:00,47.0,33.8,30.24,North,0,0.0,0.0,60,0.00,,,0.00,WUHU216HW,2013-02-02 10:41:00,
2013-02-02 05:46:00,47.0,33.8,30.24,North,0,0.0,0.0,60,0.00,,,0.00,WUHU216HW,2013-02-02 10:46:00,
2013-02-02 05:51:00,46.8,34.0,30.24,North,0,0.0,0.0,61,0.00,,,0.00,WUHU216HW,2013-02-02 10:51:00,
2013-02-02 05:56:00,46.8,34.0,30.25,North,0,0.0,0.0,61,0.00,,,0.00,WUHU216HW,2013-02-02 10:56:00,
2013-02-02 06:01:00,46.4,33.7,30.25,North,0,0.0,0.0,61,0.00,,,0.00,WUHU216HW,2013-02-02 11:01:00,
2013-02-02 06:06:00,46.4,33.7,30.25,North,0,0.0,0.0,61,0.00,,,0.00,WUHU216HW,2013-02-02 11:06:00,
2013-02-02 06:11:00,46.4,34.1,30.25,North,0,0.0,0.0,62,0.00,,,0.00,WUHU216HW,2013-02-02 11:11:00,
2013-02-02 06:16:00,46.4,34.1,30.25,North,0,0.0,0.0,62,0.00,,,0.00,WUHU216HW,2013-02-02 11:16:00,
2013-02-02 06:21:00,46.4,34.1,30.26,North,0,0.0,0.0,62,0.00,,,0.00,WUHU216HW,2013-02-02 11:21:00,
2013-02-02 06:26:00,46.4,34.1,30.26,North,0,0.0,0.0,62,0.00,,,0.00,WUHU216HW,2013-02-02 11:26:00,
2013-02-02 06:31:00,46.4,34.1,30.26,North,0,0.0,0.0,62,0.00,,,0.00,WUHU216HW,2013-02-02 11:31:00,
2013-02-02 06:36:00,46.4,34.1,30.26,North,0,0.0,0.0,62,0.00,,,0.00,WUHU216HW,2013-02-02 11:36:00,
2013-02-02 06:41:00,46.4,34.1,30.26,North,0,0.0,0.0,62,0.00,,,0.00,WUHU216HW,2013-02-02 11:41:00,
2013-02-02 06:46:00,46.4,34.1,30.26,North,0,0.0,0.0,62,0.00,,,0.00,WUHU216HW,2013-02-02 11:46:00,
2013-02-02 06:51:00,46.4,34.1,30.27,North,0,0.0,0.0,62,0.00,,,0.00,WUHU216HW,2013-02-02 11:51:00,
2013-02-02 06:56:00,46.4,34.1,30.27,North,0,0.0,0.0,62,0.00,,,0.00,WUHU216HW,2013-02-02 11:56:00,
2013-02-02 07:01:00,46.4,34.1,30.27,North,0,0.0,0.0,62,0.00,,,0.00,WUHU216HW,2013-02-02 12:01:00,
2013-02-02 07:06:00,46.4,34.1,30.27,North,0,0.0,0.0,62,0.00,,,0.00,WUHU216HW,2013-02-02 12:06:00,
2013-02-02 07:11:00,46.3,34.3,30.27,North,0,0.0,0.0,63,0.00,,,0.00,WUHU216HW,2013-02-02 12:11:00,
2013-02-02 07:16:00,46.1,34.1,30.27,North,0,0.0,0.0,63,0.00,,,0.00,WUHU216HW,2013-02-02 12:16:00,
2013-02-02 07:21:00,46.1,34.1,30.27,North,0,0.0,0.0,63,0.00,,,0.00,WUHU216HW,2013-02-02 12:21:00,
2013-02-02 07:26:00,46.1,34.1,30.27,North,0,0.0,0.0,63,0.00,,,0.00,WUHU216HW,2013-02-02 12:26:00,
2013-02-02 07:31:00,46.1,34.1,30.27,North,0,0.0,0.0,63,0.00,,,0.00,WUHU216HW,2013-02-02 12:31:00,
2013-02-02 07:36:00,46.1,34.1,30.27,North,0,0.0,0.0,63,0.00,,,0.00,WUHU216HW,2013-02-02 12:36:00,
2013-02-02 07:41:00,46.1,34.1,30.28,North,0,0.0,0.0,63,0.00,,,0.00,WUHU216HW,2013-02-02 12:41:00,
2013-02-02 07:46:00,45.7,34.2,30.28,North,0,0.0,0.0,64,0.00,,,0.00,WUHU216HW,2013-02-02 12:46:00,
2013-02-02 07:51:00,45.7,34.2,30.28,North,0,0.0,0.0,64,0.00,,,0.00,WUHU216HW,2013-02-02 12:51:00,
2013-02-02 07:56:00,45.7,34.2,30.28,North,0,0.0,0.0,64,0.00,,,0.00,WUHU216HW,2013-02-02 12:56:00,
2013-02-02 08:01:00,45.7,34.6,30.27,North,0,0.0,0.0,65,0.00,,,0.00,WUHU216HW,2013-02-02 13:01:00,
2013-02-02 08:06:00,45.9,34.7,30.28,North,0,0.0,0.0,65,0.00,,,0.00,WUHU216HW,2013-02-02 13:06:00,
2013-02-02 08:11:00,46.1,34.9,30.28,North,0,0.0,0.0,65,0.00,,,0.00,WUHU216HW,2013-02-02 13:11:00,
2013-02-02 08:16:00,46.1,34.9,30.28,North,0,0.0,0.0,65,0.00,,,0.00,WUHU216HW,2013-02-02 13:16:00,
2013-02-02 08:21:00,46.3,35.1,30.28,North,0,0.0,0.0,65,0.00,,,0.00,WUHU216HW,2013-02-02 13:21:00,
2013-02-02 08:26:00,46.4,35.3,30.28,North,0,0.0,0.0,65,0.00,,,0.00,WUHU216HW,2013-02-02 13:26:00,
2013-02-02 08:31:00,46.6,35.5,30.28,North,0,0.0,0.0,65,0.00,,,0.00,WUHU216HW,2013-02-02 13:31:00,
2013-02-02 08:36:00,46.8,36.0,30.28,North,0,0.0,0.0,66,0.00,,,0.00,WUHU216HW,2013-02-02 13:36:00,
2013-02-02 08:41:00,47.0,36.2,30.28,North,0,0.0,0.0,66,0.00,,,0.00,WUHU216HW,2013-02-02 13:41:00,
2013-02-02 08:46:00,47.2,36.4,30.28,North,0,0.0,0.0,66,0.00,,,0.00,WUHU216HW,2013-02-02 13:46:00,
2013-02-02 08:51:00,47.5,36.7,30.28,North,0,0.0,0.0,66,0.00,,,0.00,WUHU216HW,2013-02-02 13:51:00,
2013-02-02 08:56:00,47.9,37.0,30.28,North,0,0.0,0.0,66,0.00,,,0.00,WUHU216HW,2013-02-02 13:56:00,
2013-02-02 09:01:00,48.1,37.2,30.28,North,0,0.0,0.0,66,0.00,,,0.00,WUHU216HW,2013-02-02 14:01:00,
2013-02-02 09:06:00,48.4,37.5,30.28,North,0,0.0,0.0,66,0.00,,,0.00,WUHU216HW,2013-02-02 14:06:00,
2013-02-02 09:11:00,48.6,38.1,30.28,North,0,0.0,0.0,67,0.00,,,0.00,WUHU216HW,2013-02-02 14:11:00,
2013-02-02 09:16:00,49.0,38.4,30.28,North,0,0.0,0.0,67,0.00,,,0.00,WUHU216HW,2013-02-02 14:16:00,
2013-02-02 09:21:00,49.1,38.6,30.28,North,0,0.0,0.0,67,0.00,,,0.00,WUHU216HW,2013-02-02 14:21:00,
2013-02-02 09:26:00,49.5,39.0,30.28,North,0,0.0,0.0,67,0.00,,,0.00,WUHU216HW,2013-02-02 14:26:00,
2013-02-02 09:31:00,49.9,39.3,30.28,North,0,0.0,0.0,67,0.00,,,0.00,WUHU216HW,2013-02-02 14:31:00,
2013-02-02 09:36:00,50.2,39.7,30.28,North,0,0.0,0.0,67,0.00,,,0.00,WUHU216HW,2013-02-02 14:36:00,
2013-02-02 09:41:00,50.6,40.4,30.28,North,0,0.0,0.0,68,0.00,,,0.00,WUHU216HW,2013-02-02 14:41:00,
2013-02-02 09:46:00,51.1,41.0,30.28,North,0,0.0,0.0,68,0.00,,,0.00,WUHU216HW,2013-02-02 14:46:00,
2013-02-02 09:51:00,51.5,41.3,30.28,North,0,0.0,0.0,68,0.00,,,0.00,WUHU216HW,2013-02-02 14:51:00,
2013-02-02 09:56:00,51.8,41.2,30.27,North,0,0.0,0.0,67,0.00,,,0.00,WUHU216HW,2013-02-02 14:56:00,
2013-02-02 10:01:00,52.4,41.8,30.27,North,0,0.0,0.0,67,0.00,,,0.00,WUHU216HW,2013-02-02 15:01:00,
2013-02-02 10:06:00,52.9,41.9,30.27,North,0,0.0,0.0,66,0.00,,,0.00,WUHU216HW,2013-02-02 15:06:00,
2013-02-02 10:11:00,53.3,42.2,30.27,North,0,0.0,0.0,66,0.00,,,0.00,WUHU216HW,2013-02-02 15:11:00,
2013-02-02 10:16:00,53.8,42.3,30.27,North,0,0.0,0.0,65,0.00,,,0.00,WUHU216HW,2013-02-02 15:16:00,
2013-02-02 10:21:00,54.0,42.5,30.27,North,0,0.0,0.0,65,0.00,,,0.00,WUHU216HW,2013-02-02 15:21:00,
2013-02-02 10:26:00,54.5,42.6,30.27,North,0,0.0,0.0,64,0.00,,,0.00,WUHU216HW,2013-02-02 15:26:00,
2013-02-02 10:31:00,55.1,42.7,30.26,North,0,0.0,0.0,63,0.00,,,0.00,WUHU216HW,2013-02-02 15:31:00,
2013-02-02 10:36:00,55.6,42.8,30.26,North,0,0.0,0.0,62,0.00,,,0.00,WUHU216HW,2013-02-02 15:36:00,
2013-02-02 10:41:00,56.0,42.8,30.26,North,0,0.0,0.0,61,0.00,,,0.00,WUHU216HW,2013-02-02 15:41:00,
2013-02-02 10:46:00,56.3,42.7,30.26,North,0,0.0,0.0,60,0.00,,,0.00,WUHU216HW,2013-02-02 15:46:00,
2013-02-02 10:51:00,56.7,43.0,30.26,North,0,0.0,0.0,60,0.00,,,0.00,WUHU216HW,2013-02-02 15:51:00,
2013-02-02 10:56:00,57.2,43.1,30.26,North,0,0.0,0.0,59,0.00,,,0.00,WUHU216HW,2013-02-02 15:56:00,
2013-02-02 11:01:00,57.6,42.9,30.25,North,0,0.0,0.0,58,0.00,,,0.00,WUHU216HW,2013-02-02 16:01:00,
2013-02-02 11:06:00,58.3,43.6,30.25,North,0,0.0,0.0,58,0.00,,,0.00,WUHU216HW,2013-02-02 16:06:00,
2013-02-02 11:11:00,59.2,44.9,30.25,North,0,0.0,0.0,59,0.00,,,0.00,WUHU216HW,2013-02-02 16:11:00,
2013-02-02 11:16:00,60.8,46.0,30.25,North,0,0.0,0.0,58,0.00,,,0.00,WUHU216HW,2013-02-02 16:16:00,
2013-02-02 11:21:00,62.1,45.7,30.25,North,0,0.0,0.0,55,0.00,,,0.00,WUHU216HW,2013-02-02 16:21:00,
2013-02-02 11:26:00,63.9,46.8,30.24,North,0,0.0,0.0,54,0.00,,,0.00,WUHU216HW,2013-02-02 16:26:00,
2013-02-02 11:31:00,67.1,48.0,30.24,North,0,0.0,0.0,50,0.00,,,0.00,WUHU216HW,2013-02-02 16:31:00,
2013-02-02 11:36:00,70.6,49.2,30.24,North,0,0.0,0.0,47,0.00,,,0.00,WUHU216HW,2013-02-02 16:36:00,
2013-02-02 11:41:00,73.8,49.9,30.24,North,0,0.0,0.0,43,0.00,,,0.00,WUHU216HW,2013-02-02 16:41:00,
2013-02-02 11:46:00,76.1,50.1,30.24,North,0,0.0,0.0,40,0.00,,,0.00,WUHU216HW,2013-02-02 16:46:00,
2013-02-02 11:51:00,78.3,50.6,30.24,North,0,0.0,0.0,38,0.00,,,0.00,WUHU216HW,2013-02-02 16:51:00,
2013-02-02 11:56:00,80.6,50.3,30.24,North,0,0.0,0.0,35,0.00,,,0.00,WUHU216HW,2013-02-02 16:56:00,
2013-02-02 12:01:00,83.5,51.2,30.23,North,0,0.0,0.0,33,0.00,,,0.00,WUHU216HW,2013-02-02 17:01:00,
2013-02-02 12:06:00,85.9,50.9,30.23,North,0,0.0,0.0,30,0.00,,,0.00,WUHU216HW,2013-02-02 17:06:00,
2013-02-02 12:11:00,87.3,51.0,30.23,North,0,0.0,0.0,29,0.00,,,0.00,WUHU216HW,2013-02-02 17:11:00,
2013-02-02 12:16:00,88.6,51.0,30.22,North,0,0.0,0.0,28,0.00,,,0.00,WUHU216HW,2013-02-02 17:16:00,
2013-02-02 12:21:00,89.8,51.1,30.22,North,0,0.0,0.0,27,0.00,,,0.00,WUHU216HW,2013-02-02 17:21:00,
2013-02-02 12:26:00,91.1,50.1,30.22,North,0,0.0,0.0,25,0.00,,,0.00,WUHU216HW,2013-02-02 17:26:00,
2013-02-02 12:31:00,92.2,50.9,30.22,North,0,0.0,0.0,25,0.00,,,0.00,WUHU216HW,2013-02-02 17:31:00,
2013-02-02 12:36:00,92.7,50.2,30.21,North,0,0.0,0.0,24,0.00,,,0.00,WUHU216HW,2013-02-02 17:36:00,
2013-02-02 12:41:00,92.0,49.7,30.21,North,0,0.0,0.0,24,0.00,,,0.00,WUHU216HW,2013-02-02 17:41:00,
2013-02-02 12:46:00,91.1,47.8,30.21,North,0,0.0,0.0,23,0.00,,,0.00,WUHU216HW,2013-02-02 17:46:00,
2013-02-02 12:51:00,90.7,47.5,30.20,North,0,0.0,0.0,23,0.00,,,0.00,WUHU216HW,2013-02-02 17:51:00,
2013-02-02 12:56:00,89.6,46.6,30.20,North,0,0.0,0.0,23,0.00,,,0.00,WUHU216HW,2013-02-02 17:56:00,
2013-02-02 13:01:00,88.0,45.3,30.20,North,0,0.0,0.0,23,0.00,,,0.00,WUHU216HW,2013-02-02 18:01:00,
2013-02-02 13:06:00,86.0,43.6,30.19,North,0,0.0,0.0,23,0.00,,,0.00,WUHU216HW,2013-02-02 18:06:00,
2013-02-02 13:11:00,83.0,43.1,30.19,North,0,0.0,0.0,25,0.00,,,0.00,WUHU216HW,2013-02-02 18:11:00,
2013-02-02 13:16:00,80.1,41.8,30.19,North,0,0.0,0.0,26,0.00,,,0.00,WUHU216HW,2013-02-02 18:16:00,
2013-02-02 13:21:00,77.8,41.9,30.18,North,0,0.0,0.0,28,0.00,,,0.00,WUHU216HW,2013-02-02 18:21:00,
2013-02-02 13:26:00,76.3,41.7,30.18,North,0,0.0,0.0,29,0.00,,,0.00,WUHU216HW,2013-02-02 18:26:00,
2013-02-02 13:31:00,75.4,42.0,30.18,North,0,0.0,0.0,30,0.00,,,0.00,WUHU216HW,2013-02-02 18:31:00,
2013-02-02 13:36:00,74.7,42.0,30.18,North,0,0.0,0.0,31,0.00,,,0.00,WUHU216HW,2013-02-02 18:36:00,
2013-02-02 13:41:00,74.0,41.4,30.17,North,0,0.0,0.0,31,0.00,,,0.00,WUHU216HW,2013-02-02 18:41:00,
2013-02-02 13:46:00,73.6,41.9,30.17,North,0,0.0,0.0,32,0.00,,,0.00,WUHU216HW,2013-02-02 18:46:00,
2013-02-02 13:51:00,73.1,41.4,30.17,North,0,0.0,0.0,32,0.00,,,0.00,WUHU216HW,2013-02-02 18:51:00,
2013-02-02 13:56:00,72.7,41.9,30.16,North,0,0.0,0.0,33,0.00,,,0.00,WUHU216HW,2013-02-02 18:56:00,
2013-02-02 14:01:00,72.4,41.5,30.16,North,0,0.0,0.0,33,0.00,,,0.00,WUHU216HW,2013-02-02 19:01:00,
2013-02-02 14:06:00,72.2,41.4,30.17,North,0,0.0,0.0,33,0.00,,,0.00,WUHU216HW,2013-02-02 19:06:00,
2013-02-02 14:11:00,72.0,41.9,30.16,North,0,0.0,0.0,34,0.00,,,0.00,WUHU216HW,2013-02-02 19:11:00,
2013-02-02 14:16:00,71.6,41.7,30.16,North,0,0.0,0.0,34,0.00,,,0.00,WUHU216HW,2013-02-02 19:16:00,
2013-02-02 14:21:00,71.6,41.7,30.16,North,0,0.0,0.0,34,0.00,,,0.00,WUHU216HW,2013-02-02 19:21:00,
2013-02-02 14:26:00,71.3,41.3,30.16,North,0,0.0,0.0,34,0.00,,,0.00,WUHU216HW,2013-02-02 19:26:00,
2013-02-02 14:31:00,71.3,42.0,30.16,North,0,0.0,0.0,35,0.00,,,0.00,WUHU216HW,2013-02-02 19:31:00,
2013-02-02 14:36:00,71.1,42.0,30.16,North,0,0.0,0.0,35,0.00,,,0.00,WUHU216HW,2013-02-02 19:36:00,
2013-02-02 14:41:00,70.9,41.1,30.15,North,0,0.0,0.0,34,0.00,,,0.00,WUHU216HW,2013-02-02 19:41:00,
2013-02-02 14:46:00,70.9,41.8,30.15,North,0,0.0,0.0,35,0.00,,,0.00,WUHU216HW,2013-02-02 19:46:00,
2013-02-02 14:51:00,70.7,41.6,30.15,North,0,0.0,0.0,35,0.00,,,0.00,WUHU216HW,2013-02-02 19:51:00,
2013-02-02 14:56:00,70.6,41.4,30.15,North,0,0.0,0.0,35,0.00,,,0.00,WUHU216HW,2013-02-02 19:56:00,
2013-02-02 15:01:00,70.6,41.4,30.14,North,0,0.0,0.0,35,0.00,,,0.00,WUHU216HW,2013-02-02 20:01:00,
2013-02-02 15:06:00,70.4,42.0,30.14,North,0,0.0,0.0,36,0.00,,,0.00,WUHU216HW,2013-02-02 20:06:00,
2013-02-02 15:11:00,70.2,41.1,30.14,North,0,0.0,0.0,35,0.00,,,0.00,WUHU216HW,2013-02-02 20:11:00,
2013-02-02 15:16:00,70.2,41.1,30.14,North,0,0.0,0.0,35,0.00,,,0.00,WUHU216HW,2013-02-02 20:16:00,
2013-02-02 15:21:00,70.0,41.0,30.14,North,0,0.0,0.0,35,0.00,,,0.00,WUHU216HW,2013-02-02 20:21:00,
2013-02-02 15:26:00,69.8,40.8,30.13,North,0,0.0,0.0,35,0.00,,,0.00,WUHU216HW,2013-02-02 20:26:00,
2013-02-02 15:31:00,69.7,42.1,30.13,North,0,0.0,0.0,37,0.00,,,0.00,WUHU216HW,2013-02-02 20:31:00,
2013-02-02 15:36:00,69.7,42.1,30.13,North,0,0.0,0.0,37,0.00,,,0.00,WUHU216HW,2013-02-02 20:36:00,
2013-02-02 15:41:00,69.5,42.7,30.13,North,0,0.0,0.0,38,0.00,,,0.00,WUHU216HW,2013-02-02 20:41:00,
2013-02-02 15:46:00,69.5,42.0,30.13,North,0,0.0,0.0,37,0.00,,,0.00,WUHU216HW,2013-02-02 20:46:00,
2013-02-02 15:51:00,69.5,42.7,30.12,North,0,0.0,0.0,38,0.00,,,0.00,WUHU216HW,2013-02-02 20:51:00,
2013-02-02 15:56:00,69.5,43.4,30.13,North,0,0.0,0.0,39,0.00,,,0.00,WUHU216HW,2013-02-02 20:56:00,
2013-02-02 16:01:00,69.5,43.4,30.12,North,0,0.0,0.0,39,0.00,,,0.00,WUHU216HW,2013-02-02 21:01:00,
2013-02-02 16:06:00,69.5,43.4,30.12,North,0,0.0,0.0,39,0.00,,,0.00,WUHU216HW,2013-02-02 21:06:00,
2013-02-02 16:11:00,69.3,42.5,30.12,North,0,0.0,0.0,38,0.00,,,0.00,WUHU216HW,2013-02-02 21:11:00,
2013-02-02 16:16:00,69.3,42.5,30.12,North,0,0.0,0.0,38,0.00,,,0.00,WUHU216HW,2013-02-02 21:16:00,
2013-02-02 16:21:00,69.1,42.3,30.12,North,0,0.0,0.0,38,0.00,,,0.00,WUHU216HW,2013-02-02 21:21:00,
2013-02-02 16:26:00,69.1,43.1,30.12,North,0,0.0,0.0,39,0.00,,,0.00,WUHU216HW,2013-02-02 21:26:00,
2013-02-02 16:31:00,69.1,43.1,30.12,North,0,0.0,0.0,39,0.00,,,0.00,WUHU216HW,2013-02-02 21:31:00,
2013-02-02 16:36:00,68.9,43.7,30.12,North,0,0.0,0.0,40,0.00,,,0.00,WUHU216HW,2013-02-02 21:36:00,
2013-02-02 16:41:00,68.9,42.9,30.12,North,0,0.0,0.0,39,0.00,,,0.00,WUHU216HW,2013-02-02 21:41:00,
2013-02-02 16:46:00,68.8,43.5,30.12,North,0,0.0,0.0,40,0.00,,,0.00,WUHU216HW,2013-02-02 21:46:00,
2013-02-02 16:51:00,68.8,43.5,30.12,North,0,0.0,0.0,40,0.00,,,0.00,WUHU216HW,2013-02-02 21:51:00,
2013-02-02 16:56:00,68.8,43.5,30.12,North,0,0.0,0.0,40,0.00,,,0.00,WUHU216HW,2013-02-02 21:56:00,
2013-02-02 17:01:00,68.6,43.9,30.12,North,0,0.0,0.0,41,0.00,,,0.00,WUHU216HW,2013-02-02 22:01:00,
2013-02-02 17:06:00,68.4,43.2,30.12,North,0,0.0,0.0,40,0.00,,,0.00,WUHU216HW,2013-02-02 22:06:00,
2013-02-02 17:11:00,68.4,43.2,30.12,North,0,0.0,0.0,40,0.00,,,0.00,WUHU216HW,2013-02-02 22:11:00,
2013-02-02 17:16:00,68.4,43.7,30.12,North,0,0.0,0.0,41,0.00,,,0.00,WUHU216HW,2013-02-02 22:16:00,
2013-02-02 17:21:00,68.4,43.7,30.12,North,0,0.0,0.0,41,0.00,,,0.00,WUHU216HW,2013-02-02 22:21:00,
2013-02-02 17:26:00,68.2,43.6,30.12,North,0,0.0,0.0,41,0.00,,,0.00,WUHU216HW,2013-02-02 22:26:00,
2013-02-02 17:31:00,68.0,43.5,30.12,North,0,0.0,0.0,41,0.00,,,0.00,WUHU216HW,2013-02-02 22:31:00,
2013-02-02 17:36:00,67.9,42.7,30.12,North,0,0.0,0.0,40,0.00,,,0.00,WUHU216HW,2013-02-02 22:36:00,
2013-02-02 17:41:00,67.7,42.5,30.12,North,0,0.0,0.0,40,0.00,,,0.00,WUHU216HW,2013-02-02 22:41:00,
2013-02-02 17:46:00,67.7,42.5,30.12,North,0,0.0,0.0,40,0.00,,,0.00,WUHU216HW,2013-02-02 22:46:00,
2013-02-02 17:51:00,67.5,42.4,30.12,North,0,0.0,0.0,40,0.00,,,0.00,WUHU216HW,2013-02-02 22:51:00,
2013-02-02 17:56:00,67.3,42.8,30.12,North,0,0.0,0.0,41,0.00,,,0.00,WUHU216HW,2013-02-02 22:56:00,
2013-02-02 18:01:00,67.1,42.7,30.12,North,0,0.0,0.0,41,0.00,,,0.00,WUHU216HW,2013-02-02 23:01:00,
2013-02-02 18:06:00,67.0,43.0,30.12,North,0,0.0,0.0,42,0.00,,,0.00,WUHU216HW,2013-02-02 23:06:00,
2013-02-02 18:11:00,67.0,43.0,30.12,North,0,0.0,0.0,42,0.00,,,0.00,WUHU216HW,2013-02-02 23:11:00,
2013-02-02 18:16:00,66.8,42.9,30.12,North,0,0.0,0.0,42,0.00,,,0.00,WUHU216HW,2013-02-02 23:16:00,
2013-02-02 18:21:00,66.6,42.8,30.12,North,0,0.0,0.0,42,0.00,,,0.00,WUHU216HW,2013-02-02 23:21:00,
2013-02-02 18:26:00,66.6,43.3,30.12,North,0,0.0,0.0,43,0.00,,,0.00,WUHU216HW,2013-02-02 23:26:00,
2013-02-02 18:31:00,66.4,43.2,30.12,North,0,0.0,0.0,43,0.00,,,0.00,WUHU216HW,2013-02-02 23:31:00,
2013-02-02 18:36:00,66.2,43.6,30.12,North,0,0.0,0.0,44,0.00,,,0.00,WUHU216HW,2013-02-02 23:36:00,
2013-02-02 18:41:00,66.1,42.9,30.12,North,0,0.0,0.0,43,0.00,,,0.00,WUHU216HW,2013-02-02 23:41:00,
2013-02-02 18:46:00,65.9,42.7,30.12,North,0,0.0,0.0,43,0.00,,,0.00,WUHU216HW,2013-02-02 23:46:00,
2013-02-02 18:51:00,65.7,42.5,30.12,North,0,0.0,0.0,43,0.00,,,0.00,WUHU216HW,2013-02-02 23:51:00,
2013-02-02 18:56:00,65.5,42.3,30.12,North,0,0.0,0.0,43,0.00,,,0.00,WUHU216HW,2013-02-02 23:56:00,
2013-02-02 19:01:00,65.3,42.8,30.12,North,0,0.0,0.0,44,0.00,,,0.00,WUHU216HW,2013-02-03 00:01:00,
2013-02-02 19:06:00,65.2,42.6,30.13,North,0,0.0,0.0,44,0.00,,,0.00,WUHU216HW,2013-02-03 00:06:00,
2013-02-02 19:11:00,65.0,43.0,30.13,North,0,0.0,0.0,45,0.00,,,0.00,WUHU216HW,2013-02-03 00:11:00,
2013-02-02 19:16:00,64.8,42.9,30.13,North,0,0.0,0.0,45,0.00,,,0.00,WUHU216HW,2013-02-03 00:16:00,
2013-02-02 19:21:00,64.4,42.5,30.13,North,0,0.0,0.0,45,0.00,,,0.00,WUHU216HW,2013-02-03 00:21:00,
2013-02-02 19:26:00,64.4,42.5,30.13,North,0,0.0,0.0,45,0.00,,,0.00,WUHU216HW,2013-02-03 00:26:00,
2013-02-02 19:31:00,64.3,42.3,30.13,North,0,0.0,0.0,45,0.00,,,0.00,WUHU216HW,2013-02-03 00:31:00,
2013-02-02 19:36:00,63.9,42.0,30.13,North,0,0.0,0.0,45,0.00,,,0.00,WUHU216HW,2013-02-03 00:36:00,
2013-02-02 19:41:00,63.7,41.9,30.13,North,0,0.0,0.0,45,0.00,,,0.00,WUHU216HW,2013-02-03 00:41:00,
2013-02-02 19:46:00,63.4,41.5,30.13,North,0,0.0,0.0,45,0.00,,,0.00,WUHU216HW,2013-02-03 00:46:00,
2013-02-02 19:51:00,63.2,41.3,30.13,North,0,0.0,0.0,45,0.00,,,0.00,WUHU216HW,2013-02-03 00:51:00,
2013-02-02 19:56:00,63.0,41.8,30.13,North,0,0.0,0.0,46,0.00,,,0.00,WUHU216HW,2013-02-03 00:56:00,
2013-02-02 20:01:00,62.6,41.4,30.13,North,0,0.0,0.0,46,0.00,,,0.00,WUHU216HW,2013-02-03 01:01:00,
2013-02-02 20:06:00,62.6,42.0,30.13,North,0,0.0,0.0,47,0.00,,,0.00,WUHU216HW,2013-02-03 01:06:00,
2013-02-02 20:11:00,62.5,42.4,30.13,North,0,0.0,0.0,48,0.00,,,0.00,WUHU216HW,2013-02-03 01:11:00,
2013-02-02 20:16:00,62.3,42.3,30.14,North,0,0.0,0.0,48,0.00,,,0.00,WUHU216HW,2013-02-03 01:16:00,
2013-02-02 20:21:00,62.1,42.7,30.14,North,0,0.0,0.0,49,0.00,,,0.00,WUHU216HW,2013-02-03 01:21:00,
2013-02-02 20:26:00,61.9,43.1,30.14,North,0,0.0,0.0,50,0.00,,,0.00,WUHU216HW,2013-02-03 01:26:00,
2013-02-02 20:31:00,61.9,43.6,30.14,North,0,0.0,0.0,51,0.00,,,0.00,WUHU216HW,2013-02-03 01:31:00,
2013-02-02 20:36:00,61.6,43.3,30.14,North,0,0.0,0.0,51,0.00,,,0.00,WUHU216HW,2013-02-03 01:36:00,
2013-02-02 20:41:00,61.6,43.3,30.14,North,0,0.0,0.0,51,0.00,,,0.00,WUHU216HW,2013-02-03 01:41:00,
2013-02-02 20:46:00,61.4,42.6,30.14,North,0,0.0,0.0,50,0.00,,,0.00,WUHU216HW,2013-02-03 01:46:00,
2013-02-02 20:51:00,61.2,41.9,30.14,North,0,0.0,0.0,49,0.00,,,0.00,WUHU216HW,2013-02-03 01:51:00,
2013-02-02 20:56:00,61.2,41.9,30.14,North,0,0.0,0.0,49,0.00,,,0.00,WUHU216HW,2013-02-03 01:56:00,
2013-02-02 21:01:00,61.0,41.7,30.14,North,0,0.0,0.0,49,0.00,,,0.00,WUHU216HW,2013-02-03 02:01:00,
2013-02-02 21:06:00,61.0,41.7,30.13,North,0,0.0,0.0,49,0.00,,,0.00,WUHU216HW,2013-02-03 02:06:00,
2013-02-02 21:11:00,61.0,41.7,30.14,North,0,0.0,0.0,49,0.00,,,0.00,WUHU216HW,2013-02-03 02:11:00,
2013-02-02 21:16:00,60.8,42.1,30.14,North,0,0.0,0.0,50,0.00,,,0.00,WUHU216HW,2013-02-03 02:16:00,
2013-02-02 21:21:00,60.8,42.1,30.14,North,0,0.0,0.0,50,0.00,,,0.00,WUHU216HW,2013-02-03 02:21:00,
2013-02-02 21:26:00,60.8,42.1,30.14,North,0,0.0,0.0,50,0.00,,,0.00,WUHU216HW,2013-02-03 02:26:00,
2013-02-02 21:31:00,60.7,41.4,30.14,North,0,0.0,0.0,49,0.00,,,0.00,WUHU216HW,2013-02-03 02:31:00,
2013-02-02 21:36:00,60.5,41.8,30.14,North,0,0.0,0.0,50,0.00,,,0.00,WUHU216HW,2013-02-03 02:36:00,
2013-02-02 21:41:00,60.5,41.8,30.14,North,0,0.0,0.0,50,0.00,,,0.00,WUHU216HW,2013-02-03 02:41:00,
2013-02-02 21:46:00,60.3,41.7,30.14,North,0,0.0,0.0,50,0.01,,,0.00,WUHU216HW,2013-02-03 02:46:00,
2013-02-02 21:51:00,60.1,41.5,30.13,North,0,0.0,0.0,50,0.01,,,0.01,WUHU216HW,2013-02-03 02:51:00,
2013-02-02 21:56:00,60.1,41.5,30.14,North,0,0.0,0.0,50,0.01,,,0.01,WUHU216HW,2013-02-03 02:56:00,
2013-02-02 22:01:00,59.9,41.3,30.14,North,0,0.0,0.0,50,0.01,,,0.01,WUHU216HW,2013-02-03 03:01:00,
2013-02-02 22:06:00,59.8,41.6,30.14,North,0,0.0,0.0,51,0.01,,,0.01,WUHU216HW,2013-02-03 03:06:00,
2013-02-02 22:11:00,59.8,41.6,30.14,North,0,0.0,0.0,51,0.01,,,0.01,WUHU216HW,2013-02-03 03:11:00,
2013-02-02 22:16:00,59.4,41.3,30.14,North,0,0.0,0.0,51,0.01,,,0.01,WUHU216HW,2013-02-03 03:16:00,
2013-02-02 22:21:00,59.4,41.3,30.14,North,0,0.0,0.0,51,0.01,,,0.01,WUHU216HW,2013-02-03 03:21:00,
2013-02-02 22:26:00,59.2,41.1,30.14,North,0,0.0,0.0,51,0.01,,,0.01,WUHU216HW,2013-02-03 03:26:00,
2013-02-02 22:31:00,59.0,41.4,30.14,North,0,0.0,0.0,52,0.01,,,0.01,WUHU216HW,2013-02-03 03:31:00,
2013-02-02 22:36:00,58.9,41.3,30.14,North,0,0.0,0.0,52,0.01,,,0.01,WUHU216HW,2013-02-03 03:36:00,
2013-02-02 22:41:00,58.7,41.6,30.14,North,0,0.0,0.0,53,0.01,,,0.01,WUHU216HW,2013-02-03 03:41:00,
2013-02-02 22:46:00,58.7,41.6,30.14,North,0,0.0,0.0,53,0.00,,,0.01,WUHU216HW,2013-02-03 03:46:00,
2013-02-02 22:51:00,58.5,41.9,30.14,North,0,0.0,0.0,54,0.00,,,0.01,WUHU216HW,2013-02-03 03:51:00,
2013-02-02 22:56:00,58.3,41.8,30.14,North,0,0.0,0.0,54,0.00,,,0.01,WUHU216HW,2013-02-03 03:56:00,
2013-02-02 23:01:00,58.1,41.6,30.14,North,0,0.0,0.0,54,0.00,,,0.01,WUHU216HW,2013-02-03 04:01:00,
2013-02-02 23:06:00,58.0,41.9,30.14,North,0,0.0,0.0,55,0.00,,,0.01,WUHU216HW,2013-02-03 04:06:00,
2013-02-02 23:11:00,57.8,41.7,30.14,North,0,0.0,0.0,55,0.00,,,0.01,WUHU216HW,2013-02-03 04:11:00,
2013-02-02 23:16:00,57.8,42.2,30.14,North,0,0.0,0.0,56,0.00,,,0.01,WUHU216HW,2013-02-03 04:16:00,
2013-02-02 23:21:00,57.6,41.6,30.14,North,0,0.0,0.0,55,0.00,,,0.01,WUHU216HW,2013-02-03 04:21:00,
2013-02-02 23:26:00,57.4,41.4,30.14,North,0,0.0,0.0,55,0.00,,,0.01,WUHU216HW,2013-02-03 04:26:00,
2013-02-02 23:31:00,57.2,41.7,30.14,North,0,0.0,0.0,56,0.00,,,0.01,WUHU216HW,2013-02-03 04:31:00,
2013-02-02 23:36:00,57.2,41.7,30.14,North,0,0.0,0.0,56,0.00,,,0.01,WUHU216HW,2013-02-03 04:36:00,
2013-02-02 23:41:00,56.9,41.8,30.14,North,0,0.0,0.0,57,0.00,,,0.01,WUHU216HW,2013-02-03 04:41:00,
2013-02-02 23:46:00,56.9,41.8,30.14,North,0,0.0,0.0,57,0.00,,,0.01,WUHU216HW,2013-02-03 04:46:00,
2013-02-02 23:51:00,56.7,42.1,30.14,North,0,0.0,0.0,58,0.00,,,0.01,WUHU216HW,2013-02-03 04:51:00,
2013-02-02 23:56:00,56.5,42.0,30.13,North,0,0.0,0.0,58,0.00,,,0.01,WUHU216HW,2013-02-03 04:56:00,